Time;durP1;ratioP1;P1;durP2;ratioP2;P2;SDS_P1;SDS_P2;PMS_P1;PMS_P2;Temp;Humidity;BMP_temperature;BMP_pressure;BME280_temperature;BME280_humidity;BME280_pressure;Samples;Min_cycle;Max_cycle;Signal;HPM_P1;HPM_P2
2022/05/05 00:01:50;;;;;;;2.00;1.90;;;12.30;99.90;11.80;98417.00;;;;5134832;28;20607;-78
2022/05/05 00:04:21;;;;;;;1.40;1.30;;;12.40;99.90;11.70;98415.00;;;;5116772;28;20213;-79
2022/05/05 00:06:49;;;;;;;3.43;2.63;;;12.40;99.90;11.60;98399.00;;;;5135026;28;20200;-79
2022/05/05 00:09:18;;;;;;;2.87;2.30;;;12.30;99.90;11.70;98407.00;;;;5134860;28;20567;-79
2022/05/05 00:14:31;;;;;;;1.77;1.60;;;12.30;99.90;11.50;98412.00;;;;5134689;28;20209;-78
2022/05/05 00:17:01;;;;;;;1.73;1.63;;;12.20;99.90;11.50;98413.00;;;;5134653;28;20200;-78
2022/05/05 00:19:32;;;;;;;1.87;1.57;;;12.20;99.90;11.50;98404.00;;;;5134532;28;20263;-78
2022/05/05 00:22:00;;;;;;;1.40;1.30;;;12.20;99.90;11.50;98402.00;;;;5134599;28;20257;-79
2022/05/05 00:24:29;;;;;;;2.00;1.90;;;12.20;99.90;11.60;98415.00;;;;5134719;28;20197;-79
2022/05/05 00:26:56;;;;;;;2.07;1.97;;;12.20;99.90;11.50;98413.00;;;;5116609;28;20219;-79
2022/05/05 00:29:23;;;;;;;2.57;2.37;;;12.20;99.90;11.50;98410.00;;;;5134600;28;20189;-79
2022/05/05 00:31:51;;;;;;;1.70;1.60;;;12.20;99.90;11.40;98406.00;;;;5117035;28;20213;-79
2022/05/05 00:34:20;;;;;;;1.70;1.60;;;12.10;99.90;11.50;98407.00;;;;5134670;28;20213;-77
2022/05/05 00:36:46;;;;;;;3.50;2.70;;;12.10;99.90;11.40;98396.00;;;;5134481;28;20197;-77
2022/05/05 00:39:14;;;;;;;22.47;2.47;;;12.10;99.90;11.50;98401.00;;;;5134606;28;20567;-78
2022/05/05 00:41:43;;;;;;;6.03;1.83;;;12.10;99.90;11.50;98396.00;;;;5134264;28;20231;-77
2022/05/05 00:44:11;;;;;;;2.00;1.80;;;12.10;99.90;11.40;98402.00;;;;5134350;28;20223;-78
2022/05/05 00:46:38;;;;;;;2.30;1.53;;;12.10;99.90;11.30;98401.00;;;;5134300;28;20194;-77
2022/05/05 00:49:05;;;;;;;1.43;1.33;;;12.00;99.90;11.50;98412.00;;;;5134195;28;20228;-77
2022/05/05 00:51:33;;;;;;;2.00;1.90;;;12.10;99.90;11.50;98405.00;;;;5118346;28;20283;-77
2022/05/05 00:54:00;;;;;;;1.90;1.80;;;12.10;99.90;11.50;98405.00;;;;5138979;28;20227;-78
2022/05/05 00:56:30;;;;;;;2.33;1.93;;;12.10;99.90;11.40;98406.00;;;;5138934;28;20198;-77
2022/05/05 00:58:58;;;;;;;2.20;2.00;;;12.10;99.90;11.30;98416.00;;;;5138734;28;20217;-78
2022/05/05 01:01:24;;;;;;;2.07;1.97;;;12.00;99.90;11.30;98407.00;;;;5120209;28;20323;-78
2022/05/05 01:03:51;;;;;;;1.63;1.53;;;11.90;99.90;11.10;98409.00;;;;5137652;28;20680;-78
2022/05/05 01:06:18;;;;;;;2.17;1.97;;;11.90;99.90;11.30;98400.00;;;;5138059;28;20257;-78
2022/05/05 01:08:46;;;;;;;21.70;3.23;;;11.90;99.90;11.40;98399.00;;;;5137561;28;20225;-78
2022/05/05 01:11:13;;;;;;;1.97;1.87;;;12.00;99.90;11.40;98393.00;;;;5137669;28;20204;-78
2022/05/05 01:13:43;;;;;;;1.57;1.47;;;12.00;99.90;11.20;98395.00;;;;5137513;28;20213;-78
2022/05/05 01:16:11;;;;;;;2.50;2.30;;;12.00;99.90;11.40;98400.00;;;;5137544;28;20276;-78
2022/05/05 01:18:38;;;;;;;1.87;1.77;;;12.00;99.90;11.30;98407.00;;;;5137691;28;20309;-78
2022/05/05 01:21:08;;;;;;;1.73;1.63;;;12.00;99.90;11.20;98397.00;;;;5137761;28;20312;-78
2022/05/05 01:23:36;;;;;;;2.17;1.93;;;11.90;99.90;11.20;98398.00;;;;5137294;28;20235;-78
2022/05/05 01:28:49;;;;;;;1.50;1.43;;;11.90;99.90;11.40;98407.00;;;;5137267;28;20232;-77
2022/05/05 01:31:15;;;;;;;2.17;2.00;;;12.00;99.90;11.50;98417.00;;;;5137690;28;20197;-77
2022/05/05 01:33:41;;;;;;;1.77;1.67;;;12.00;99.90;11.50;98413.00;;;;5119209;28;20312;-78
2022/05/05 01:36:08;;;;;;;1.63;1.53;;;12.10;99.90;11.50;98409.00;;;;5137543;28;20197;-78
2022/05/05 01:38:40;;;;;;;2.60;2.40;;;12.10;99.90;11.50;98423.00;;;;5137161;28;20197;-78
2022/05/05 01:41:09;;;;;;;2.93;2.73;;;12.20;99.90;11.40;98422.00;;;;5119217;28;20236;-76
2022/05/05 01:43:36;;;;;;;3.10;2.90;;;12.10;99.90;11.50;98422.00;;;;5136984;28;20200;-78
2022/05/05 01:46:04;;;;;;;2.77;2.53;;;12.10;99.90;11.40;98419.00;;;;5137348;28;20201;-78
2022/05/05 01:48:34;;;;;;;2.60;2.03;;;12.10;99.90;11.40;98420.00;;;;5137097;28;20244;-78
2022/05/05 01:51:01;;;;;;;2.27;2.07;;;12.10;99.90;11.70;98421.00;;;;5137056;28;20193;-78
2022/05/05 01:53:28;;;;;;;2.20;1.83;;;12.20;99.90;11.60;98418.00;;;;5137037;28;20688;-77
2022/05/05 01:55:55;;;;;;;2.27;2.17;;;12.20;99.90;11.60;98425.00;;;;5136919;28;20238;-78
2022/05/05 01:58:23;;;;;;;2.70;1.80;;;12.20;99.90;11.50;98420.00;;;;5137879;28;20193;-79
2022/05/05 02:00:49;;;;;;;1.03;1.03;;;12.20;99.90;11.50;98420.00;;;;5136931;28;20232;-78
2022/05/05 02:03:16;;;;;;;1.53;1.43;;;12.10;99.90;11.50;98417.00;;;;5136164;27;20201;-78
2022/05/05 02:05:44;;;;;;;1.63;1.53;;;12.20;99.90;11.50;98422.00;;;;5136784;28;20229;-78
2022/05/05 02:08:12;;;;;;;1.63;1.60;;;12.10;99.90;11.50;98422.00;;;;5136923;28;20566;-78
2022/05/05 02:10:41;;;;;;;1.63;1.57;;;12.10;99.90;11.50;98420.00;;;;5136632;28;20200;-78
2022/05/05 02:13:09;;;;;;;2.57;1.97;;;12.10;99.90;11.40;98421.00;;;;5136669;28;20193;-77
2022/05/05 02:15:39;;;;;;;2.30;1.87;;;12.10;99.90;11.30;98410.00;;;;5136500;28;20240;-78
2022/05/05 02:18:10;;;;;;;1.93;1.83;;;12.00;99.90;11.30;98417.00;;;;5136659;28;20240;-78
2022/05/05 02:20:38;;;;;;;2.03;1.93;;;12.00;99.90;11.30;98421.00;;;;5136414;28;20217;-78
2022/05/05 02:23:05;;;;;;;1.60;1.50;;;12.00;99.90;11.10;98400.00;;;;5118563;28;20204;-78
2022/05/05 02:25:31;;;;;;;1.43;1.40;;;11.90;99.90;11.20;98416.00;;;;5136427;28;20228;-78
2022/05/05 02:27:58;;;;;;;2.37;2.27;;;11.90;99.90;11.20;98418.00;;;;5136356;28;20205;-79
2022/05/05 02:30:27;;;;;;;2.67;2.47;;;11.90;99.90;11.20;98417.00;;;;5136375;28;20308;-78
2022/05/05 02:32:54;;;;;;;1.33;1.33;;;11.90;99.90;11.30;98416.00;;;;5118299;28;20198;-79
2022/05/05 02:35:21;;;;;;;1.60;1.53;;;11.80;99.90;11.10;98418.00;;;;5118074;28;20316;-78
2022/05/05 02:40:33;;;;;;;1.80;1.70;;;11.80;99.90;11.10;98416.00;;;;5136129;28;20220;-78
2022/05/05 02:43:02;;;;;;;2.33;2.23;;;11.80;99.90;11.10;98423.00;;;;5118113;28;20201;-78
2022/05/05 02:45:30;;;;;;;1.67;1.57;;;11.70;99.90;11.20;98412.00;;;;5136051;28;20543;-78
2022/05/05 02:47:56;;;;;;;5.17;2.13;;;11.80;99.90;11.00;98418.00;;;;5136192;28;20189;-77
2022/05/05 02:50:23;;;;;;;2.80;2.57;;;11.80;99.90;11.00;98373.00;;;;5135962;28;20247;-78
2022/05/05 02:52:53;;;;;;;1.80;1.70;;;11.70;99.90;11.00;98418.00;;;;5135997;28;20209;-79
2022/05/05 02:55:20;;;;;;;3.20;2.03;;;11.70;99.90;11.00;98418.00;;;;5136005;28;20675;-78
2022/05/05 02:57:47;;;;;;;1.47;1.47;;;11.70;99.90;11.10;98414.00;;;;5135939;28;20204;-77
2022/05/05 03:00:15;;;;;;;2.43;2.33;;;11.70;99.90;10.90;98409.00;;;;5118008;28;20250;-78
2022/05/05 03:02:45;;;;;;;2.23;1.10;;;11.60;99.90;11.00;98410.00;;;;5118062;28;20205;-78
2022/05/05 03:05:15;;;;;;;2.43;2.23;;;11.60;99.90;10.80;98407.00;;;;5135863;28;20691;-77
2022/05/05 03:07:44;;;;;;;1.03;1.03;;;11.50;99.90;11.00;98408.00;;;;5136250;28;20209;-79
2022/05/05 03:10:13;;;;;;;2.00;1.90;;;11.60;99.90;11.00;98408.00;;;;5135576;28;20541;-78
2022/05/05 03:12:40;;;;;;;1.20;1.20;;;11.60;99.90;10.80;98411.00;;;;5117577;28;20544;-78
2022/05/05 03:15:07;;;;;;;1.90;1.80;;;11.50;99.90;10.80;98414.00;;;;5135829;27;20229;-78
2022/05/05 03:17:34;;;;;;;2.00;1.90;;;11.50;99.90;10.80;98405.00;;;;5135643;28;20245;-78
2022/05/05 03:20:06;;;;;;;2.00;1.90;;;11.50;99.90;10.60;98414.00;;;;5135607;28;20274;-78
2022/05/05 03:22:35;;;;;;;1.57;1.47;;;11.40;99.90;10.60;98415.00;;;;5135658;28;20521;-79
2022/05/05 03:25:01;;;;;;;3.63;2.10;;;11.30;99.90;10.70;98412.00;;;;5135390;28;20765;-79
2022/05/05 03:27:28;;;;;;;0.90;0.90;;;11.30;99.90;10.70;98425.00;;;;5135630;28;20217;-79
2022/05/05 03:29:54;;;;;;;1.57;1.47;;;11.40;99.90;10.70;98413.00;;;;5135479;28;20265;-77
2022/05/05 03:32:21;;;;;;;1.13;1.13;;;11.40;99.90;10.70;98424.00;;;;5135569;28;20225;-77
2022/05/05 03:34:49;;;;;;;1.60;1.50;;;11.40;99.90;10.70;98422.00;;;;5135385;28;20546;-78
2022/05/05 03:37:17;;;;;;;1.70;1.30;;;11.40;99.90;10.80;98426.00;;;;5135256;28;20205;-78
2022/05/05 03:39:43;;;;;;;2.27;1.43;;;11.40;99.90;10.80;98426.00;;;;5117167;28;20243;-78
2022/05/05 03:42:10;;;;;;;2.33;2.10;;;11.40;99.90;10.70;98424.00;;;;5135089;28;20239;-79
2022/05/05 03:44:36;;;;;;;1.93;1.83;;;11.40;99.90;10.70;98429.00;;;;5135347;28;20205;-78
2022/05/05 03:47:03;;;;;;;1.00;1.00;;;11.40;99.90;10.70;98431.00;;;;5135219;28;20189;-78
2022/05/05 03:49:30;;;;;;;2.63;2.47;;;11.30;99.90;10.70;98430.00;;;;5135182;28;20573;-78
2022/05/05 03:51:57;;;;;;;1.30;1.30;;;11.40;99.90;10.70;98429.00;;;;5135205;28;20205;-78
2022/05/05 03:54:24;;;;;;;1.77;1.67;;;11.40;99.90;10.80;98433.00;;;;5117350;28;20587;-77
2022/05/05 03:56:50;;;;;;;1.23;1.23;;;11.40;99.90;10.70;98431.00;;;;5134909;28;20232;-77
2022/05/05 03:59:17;;;;;;;0.90;0.90;;;11.40;99.90;10.80;98435.00;;;;5134948;28;20208;-76
2022/05/05 04:01:45;;;;;;;0.97;0.97;;;11.40;99.90;10.80;98439.00;;;;5135053;28;20553;-78
2022/05/05 04:04:12;;;;;;;1.10;1.10;;;11.40;99.90;10.80;98432.00;;;;5134904;28;20211;-77
2022/05/05 04:06:39;;;;;;;0.90;0.90;;;11.40;99.90;10.90;98433.00;;;;5135020;28;20220;-77
2022/05/05 04:09:06;;;;;;;1.30;1.30;;;11.50;99.90;10.80;98433.00;;;;5134980;28;20272;-79
2022/05/05 04:11:34;;;;;;;1.20;1.20;;;11.50;99.90;10.90;98426.00;;;;5134843;28;20217;-78
2022/05/05 04:14:00;;;;;;;0.87;0.87;;;11.50;99.90;10.90;98435.00;;;;5135260;28;20265;-78
2022/05/05 04:16:27;;;;;;;1.60;1.50;;;11.50;99.90;10.80;98440.00;;;;5134873;28;20236;-78
2022/05/05 04:18:53;;;;;;;1.77;1.67;;;11.50;99.90;10.80;98449.00;;;;5134770;28;20298;-78
2022/05/05 04:21:19;;;;;;;0.93;0.93;;;11.50;99.90;10.80;98454.00;;;;5116416;28;20557;-79
2022/05/05 04:23:46;;;;;;;1.87;1.77;;;11.50;99.90;10.90;98457.00;;;;5134733;28;20197;-78
2022/05/05 04:26:14;;;;;;;1.07;1.07;;;11.50;99.90;10.90;98456.00;;;;5134060;27;20221;-76
2022/05/05 04:28:48;;;;;;;1.13;1.10;;;11.50;99.90;11.00;98448.00;;;;5134693;28;20205;-77
2022/05/05 04:31:16;;;;;;;4.43;2.10;;;11.60;99.90;10.90;98450.00;;;;5134631;28;20300;-78
2022/05/05 04:33:43;;;;;;;1.30;1.23;;;11.60;99.90;10.80;98465.00;;;;5134734;28;20232;-78
2022/05/05 04:36:11;;;;;;;1.83;1.73;;;11.50;99.90;10.80;98459.00;;;;5134532;28;20300;-77
2022/05/05 04:38:38;;;;;;;0.97;0.97;;;11.50;99.90;10.90;98470.00;;;;5134817;28;20219;-77
2022/05/05 04:41:05;;;;;;;1.30;1.30;;;11.50;99.90;10.80;98478.00;;;;5134286;28;20221;-78
2022/05/05 04:43:32;;;;;;;1.07;1.07;;;11.50;99.90;10.90;98485.00;;;;5134431;28;20216;-77
2022/05/05 04:46:02;;;;;;;1.00;1.00;;;11.50;99.90;10.80;98473.00;;;;5134280;28;20201;-77
2022/05/05 04:48:31;;;;;;;1.13;1.10;;;11.50;99.90;10.90;98477.00;;;;5134409;28;20244;-78
2022/05/05 04:50:57;;;;;;;1.33;1.23;;;11.60;99.90;10.80;98477.00;;;;5134318;28;20523;-77
2022/05/05 04:53:23;;;;;;;1.23;1.23;;;11.50;99.90;10.80;98472.00;;;;5134347;28;20253;-77
2022/05/05 04:55:50;;;;;;;1.33;1.27;;;11.50;99.90;10.80;98476.00;;;;5134244;28;20204;-77
2022/05/05 04:58:16;;;;;;;1.33;1.23;;;11.60;99.90;11.00;98472.00;;;;5134229;28;20575;-78
2022/05/05 05:00:45;;;;;;;0.83;0.83;;;11.60;99.90;11.00;98466.00;;;;5134246;28;20240;-78
2022/05/05 05:05:56;;;;;;;1.20;1.20;;;11.70;99.90;11.10;98471.00;;;;5133545;28;20577;-78
2022/05/05 05:08:23;;;;;;;1.30;1.20;;;11.70;99.90;11.10;98474.00;;;;5134124;28;20232;-77
2022/05/05 05:10:49;;;;;;;1.53;1.43;;;11.70;99.90;11.30;98476.00;;;;5134098;28;20579;-78
2022/05/05 05:13:18;;;;;;;1.63;1.53;;;11.80;99.90;11.30;98472.00;;;;5133948;28;20659;-77
2022/05/05 05:15:45;;;;;;;1.53;1.53;;;11.90;99.90;11.40;98457.00;;;;5133939;28;20372;-78
2022/05/05 05:18:12;;;;;;;1.97;1.73;;;12.00;99.90;11.40;98483.00;;;;5133886;28;20217;-78
2022/05/05 05:20:39;;;;;;;1.23;1.23;;;12.00;99.90;11.50;98482.00;;;;5133754;28;20276;-77
2022/05/05 05:23:08;;;;;;;2.00;1.90;;;12.10;99.90;11.60;98484.00;;;;5116077;28;20729;-78
2022/05/05 05:25:35;;;;;;;1.10;1.10;;;12.20;99.90;11.50;98493.00;;;;5133829;28;20197;-77
2022/05/05 05:28:04;;;;;;;4.43;2.33;;;12.20;99.90;11.50;98495.00;;;;5133842;28;20282;-78
2022/05/05 05:30:33;;;;;;;1.77;1.67;;;12.20;99.90;11.50;98499.00;;;;5133671;28;20194;-78
2022/05/05 05:32:59;;;;;;;1.53;1.43;;;12.20;99.90;11.50;98502.00;;;;5133647;28;20229;-77
2022/05/05 05:35:26;;;;;;;1.53;1.47;;;12.20;99.90;11.70;98500.00;;;;5133749;28;20241;-78
2022/05/05 05:37:53;;;;;;;1.40;1.40;;;12.20;99.90;11.80;98503.00;;;;5134676;27;20217;-78
2022/05/05 05:40:22;;;;;;;1.87;1.20;;;12.30;99.90;11.90;98509.00;;;;5137099;28;20289;-76
2022/05/05 05:42:49;;;;;;;4.60;2.43;;;12.40;99.90;11.80;98504.00;;;;5137045;28;20324;-75
2022/05/05 05:45:18;;;;;;;1.30;1.30;;;12.40;99.90;11.80;98507.00;;;;5136983;28;20745;-77
2022/05/05 05:47:45;;;;;;;1.50;1.40;;;12.40;99.90;11.90;98500.00;;;;5119062;28;20233;-78
2022/05/05 05:50:12;;;;;;;1.43;1.37;;;12.50;99.90;11.80;98501.00;;;;5136973;28;20246;-78
2022/05/05 05:52:38;;;;;;;0.90;0.90;;;12.40;99.90;12.00;98502.00;;;;5119103;28;20682;-77
2022/05/05 05:55:07;;;;;;;1.53;1.47;;;12.50;99.90;12.10;98501.00;;;;5137079;28;20572;-77
2022/05/05 05:57:34;;;;;;;2.10;2.00;;;12.60;99.90;12.20;98504.00;;;;5118705;28;20331;-78
2022/05/05 06:00:00;;;;;;;0.80;0.80;;;12.70;99.90;12.20;98495.00;;;;5136754;28;20201;-78
2022/05/05 06:05:14;;;;;;;2.20;1.47;;;12.90;99.90;12.40;98501.00;;;;5136786;28;20197;-78
2022/05/05 06:07:40;;;;;;;2.23;2.03;;;12.90;99.90;12.50;98505.00;;;;5136732;28;20274;-78
2022/05/05 06:10:09;;;;;;;1.20;1.20;;;13.00;99.90;12.60;98495.00;;;;5118953;28;20211;-78
2022/05/05 06:12:35;;;;;;;1.97;1.87;;;13.10;98.30;12.60;98514.00;;;;5136535;28;20213;-78
2022/05/05 06:15:02;;;;;;;1.27;1.27;;;13.10;99.60;12.60;98505.00;;;;5136612;28;20616;-78
2022/05/05 06:17:29;;;;;;;2.37;1.80;;;13.20;99.20;12.70;98518.00;;;;5136469;28;20201;-78
2022/05/05 06:19:55;;;;;;;1.07;1.07;;;13.20;99.30;12.70;98517.00;;;;5136764;28;20252;-78
2022/05/05 06:22:22;;;;;;;2.43;2.23;;;13.30;98.30;12.80;98521.00;;;;5136422;28;20239;-77
2022/05/05 06:24:49;;;;;;;1.57;1.47;;;13.40;96.80;12.80;98527.00;;;;5136431;28;20197;-78
2022/05/05 06:27:16;;;;;;;1.13;1.00;;;13.40;97.40;12.90;98528.00;;;;5136443;28;20266;-78
2022/05/05 06:29:44;;;;;;;1.73;1.63;;;13.40;96.30;12.90;98528.00;;;;5136381;28;20542;-78
2022/05/05 06:32:11;;;;;;;1.83;1.73;;;13.40;97.10;12.70;98538.00;;;;5136446;28;20805;-78
2022/05/05 06:34:38;;;;;;;1.50;1.50;;;13.40;96.20;12.80;98535.00;;;;5136263;28;20193;-78
2022/05/05 06:37:05;;;;;;;1.23;1.20;;;13.40;97.00;12.80;98546.00;;;;5136516;28;20524;-78
2022/05/05 06:39:32;;;;;;;1.70;1.60;;;13.40;97.40;12.90;98553.00;;;;5118087;28;20330;-78
2022/05/05 06:41:58;;;;;;;1.73;0.97;;;13.40;96.80;12.90;98554.00;;;;5136078;28;20224;-77
2022/05/05 06:44:26;;;;;;;0.87;0.87;;;13.40;96.90;13.00;98552.00;;;;5136142;28;20624;-77
2022/05/05 06:46:52;;;;;;;1.73;1.63;;;13.50;97.40;13.10;98550.00;;;;5136648;28;20194;-76
2022/05/05 06:49:19;;;;;;;2.43;2.27;;;13.60;98.30;13.10;98549.00;;;;5135600;27;20234;-77
2022/05/05 06:51:45;;;;;;;1.10;1.10;;;13.60;96.90;13.00;98554.00;;;;5135968;28;20268;-78
2022/05/05 06:54:12;;;;;;;1.77;1.67;;;13.60;95.00;13.00;98549.00;;;;5117991;28;20229;-78
2022/05/05 06:56:40;;;;;;;1.27;1.27;;;13.50;95.50;13.00;98545.00;;;;5136246;28;20213;-77
2022/05/05 06:59:07;;;;;;;1.10;1.10;;;13.50;96.10;13.10;98558.00;;;;5136180;28;20231;-78
2022/05/05 07:01:56;;;;;;;1.37;1.37;;;13.60;95.30;13.20;98562.00;;;;5135786;28;20252;-78
2022/05/05 07:07:11;;;;;;;0.90;0.90;;;13.60;94.30;13.00;98565.00;;;;5135879;28;20189;-78
2022/05/05 07:12:23;;;;;;;0.93;0.93;;;13.60;95.70;13.10;98569.00;;;;5117607;28;20224;-78
2022/05/05 07:14:49;;;;;;;1.03;1.03;;;13.60;96.20;13.20;98574.00;;;;5135975;28;20239;-79
2022/05/05 07:17:18;;;;;;;2.73;1.93;;;13.60;95.90;13.20;98572.00;;;;5135643;28;20216;-78
2022/05/05 07:19:47;;;;;;;2.73;1.73;;;13.60;95.60;13.20;98576.00;;;;5135818;28;20217;-79
2022/05/05 07:22:14;;;;;;;1.00;1.00;;;13.70;96.10;13.30;98575.00;;;;5135531;28;20225;-79
2022/05/05 07:24:40;;;;;;;1.80;1.70;;;13.80;96.30;13.40;98572.00;;;;5117421;28;20304;-78
2022/05/05 07:27:07;;;;;;;1.23;1.23;;;13.80;96.00;13.50;98576.00;;;;5135610;28;20189;-77
2022/05/05 07:29:34;;;;;;;1.30;1.30;;;13.90;95.50;13.40;98580.00;;;;5135269;28;20294;-77
2022/05/05 07:32:01;;;;;;;1.67;1.13;;;13.90;94.90;13.40;98573.00;;;;5135539;28;20624;-78
2022/05/05 07:34:29;;;;;;;2.23;1.47;;;13.90;94.30;13.70;98584.00;;;;5135304;28;20270;-78
2022/05/05 07:36:55;;;;;;;1.20;1.20;;;14.10;94.50;13.70;98580.00;;;;5117471;28;20601;-79
2022/05/05 07:39:23;;;;;;;0.97;0.97;;;14.10;93.70;13.80;98582.00;;;;5135230;28;20281;-78
2022/05/05 07:41:49;;;;;;;0.70;0.70;;;14.20;93.90;13.90;98578.00;;;;5135274;28;20228;-78
2022/05/05 07:44:16;;;;;;;0.80;0.80;;;14.30;93.50;13.70;98576.00;;;;5135154;28;20668;-77
2022/05/05 07:46:42;;;;;;;1.50;1.50;;;14.40;93.70;14.00;98578.00;;;;5135294;28;20189;-78
2022/05/05 07:49:12;;;;;;;0.87;0.87;;;14.50;93.60;14.20;98587.00;;;;5134940;28;20221;-79
2022/05/05 07:51:39;;;;;;;1.50;1.40;;;14.60;93.60;14.30;98564.00;;;;5135155;28;20166;-79
2022/05/05 07:56:51;;;;;;;1.43;1.33;;;14.70;93.90;14.40;98589.00;;;;5135025;28;20197;-79
2022/05/05 07:59:19;;;;;;;1.60;1.60;;;14.80;94.20;14.50;98588.00;;;;5134970;28;20263;-79
2022/05/05 08:01:46;;;;;;;1.17;1.17;;;14.90;93.30;14.70;98600.00;;;;5134084;27;20229;-79
2022/05/05 08:04:13;;;;;;;2.17;2.03;;;15.10;91.70;14.50;98589.00;;;;5135068;28;20658;-79
2022/05/05 08:06:42;;;;;;;1.20;1.20;;;14.90;91.00;14.60;98596.00;;;;5136110;28;20197;-79
2022/05/05 08:09:11;;;;;;;3.67;2.27;;;15.00;91.20;14.70;98597.00;;;;5143148;28;20205;-79
2022/05/05 08:11:38;;;;;;;1.50;1.50;;;15.10;87.50;14.60;98589.00;;;;5141041;28;20193;-79
2022/05/05 08:14:05;;;;;;;1.60;1.50;;;15.00;89.20;14.80;98600.00;;;;5135920;28;20243;-79
2022/05/05 08:16:35;;;;;;;2.87;2.67;;;15.10;87.70;14.80;98608.00;;;;5117061;28;20537;-79
2022/05/05 08:19:01;;;;;;;1.80;1.70;;;15.20;88.60;14.90;98600.00;;;;5134716;28;20189;-79
2022/05/05 08:21:28;;;;;;;1.67;1.57;;;15.20;87.50;14.70;98602.00;;;;5134564;28;20672;-78
2022/05/05 08:29:21;;;;;;;1.70;1.60;;;15.20;86.80;14.80;98612.00;;;;5134648;28;20229;-78
2022/05/05 08:31:48;;;;;;;2.27;2.13;;;15.10;86.80;14.90;98616.00;;;;5134866;28;20193;-78
2022/05/05 08:34:15;;;;;;;1.63;1.53;;;15.20;86.20;14.90;98612.00;;;;5134660;28;20292;-79
2022/05/05 08:36:41;;;;;;;1.93;1.83;;;15.30;86.30;14.90;98618.00;;;;5134669;28;20213;-78
2022/05/05 08:39:08;;;;;;;1.20;1.20;;;15.30;83.70;14.90;98618.00;;;;5134669;28;20257;-78
2022/05/05 08:41:39;;;;;;;1.33;1.23;;;15.40;85.00;14.90;98617.00;;;;5134135;28;20545;-78
2022/05/05 08:44:06;;;;;;;2.97;2.77;;;15.40;85.10;15.10;98613.00;;;;5134583;28;20215;-78
2022/05/05 08:46:34;;;;;;;2.20;2.00;;;15.50;84.50;15.10;98625.00;;;;5134438;28;20216;-78
2022/05/05 08:49:06;;;;;;;1.90;1.60;;;15.50;86.40;15.30;98621.00;;;;5134404;28;20201;-78
2022/05/05 08:51:46;;;;;;;1.13;1.10;;;15.70;85.80;15.30;98600.00;;;;5134463;28;20221;-78
2022/05/05 08:54:16;;;;;;;2.43;2.27;;;15.80;84.50;15.30;98619.00;;;;5134427;28;20200;-79
2022/05/05 08:56:43;;;;;;;1.50;1.40;;;15.70;84.80;15.30;98623.00;;;;5134210;28;20560;-78
2022/05/05 08:59:13;;;;;;;7.50;3.33;;;15.80;84.10;15.20;98622.00;;;;5134110;28;20247;-78
2022/05/05 09:01:41;;;;;;;2.00;1.90;;;15.70;83.50;15.00;98638.00;;;;5134019;28;20679;-79
2022/05/05 09:04:08;;;;;;;1.50;1.40;;;15.50;83.50;14.90;98640.00;;;;5134125;28;20197;-78
2022/05/05 09:06:46;;;;;;;2.87;2.17;;;15.50;84.90;15.10;98644.00;;;;5134009;28;20269;-78
2022/05/05 09:09:32;;;;;;;2.17;1.97;;;15.50;84.90;15.20;98640.00;;;;5134139;28;20215;-79
2022/05/05 09:12:10;;;;;;;3.30;1.67;;;15.60;84.60;15.10;98641.00;;;;5135512;27;20276;-80
2022/05/05 09:14:43;;;;;;;1.53;1.43;;;15.60;84.60;15.00;98639.00;;;;5137942;28;20281;-78
2022/05/05 09:17:15;;;;;;;7.00;1.73;;;15.60;84.50;15.00;98642.00;;;;5137597;28;20194;-79
2022/05/05 09:19:45;;;;;;;1.47;1.47;;;15.60;84.90;15.00;98643.00;;;;5137503;28;20189;-78
2022/05/05 09:22:13;;;;;;;2.63;2.43;;;15.50;85.20;15.10;98646.00;;;;5137459;28;20248;-79
2022/05/05 09:24:45;;;;;;;2.63;2.43;;;15.60;85.60;15.10;98643.00;;;;5137428;28;20201;-77
2022/05/05 09:27:20;;;;;;;1.67;1.57;;;15.60;85.00;15.10;98647.00;;;;5137750;28;20194;-80
2022/05/05 09:30:12;;;;;;;2.70;1.93;;;15.60;84.00;15.20;98651.00;;;;5137497;28;20212;-78
2022/05/05 09:32:44;;;;;;;1.60;1.50;;;15.60;82.50;15.20;98658.00;;;;5137333;28;20200;-78
2022/05/05 09:35:13;;;;;;;1.60;1.50;;;15.60;83.60;15.20;98652.00;;;;5137733;28;20232;-76
2022/05/05 09:37:45;;;;;;;3.90;1.47;;;15.70;82.60;15.00;98655.00;;;;5119441;28;20194;-78
2022/05/05 09:40:17;;;;;;;2.17;1.97;;;15.60;83.70;15.20;98661.00;;;;5137411;28;20284;-79
2022/05/05 09:42:46;;;;;;;1.90;1.80;;;15.60;83.50;15.20;98661.00;;;;5137409;28;20197;-79
2022/05/05 09:45:19;;;;;;;2.43;2.23;;;15.70;82.00;14.90;98663.00;;;;5137226;28;20283;-78
2022/05/05 09:47:49;;;;;;;2.40;2.20;;;15.50;82.20;15.00;98659.00;;;;5137105;28;20190;-79
2022/05/05 09:50:17;;;;;;;2.00;1.90;;;15.40;82.40;15.10;98659.00;;;;5119056;28;20250;-78
2022/05/05 09:58:19;;;;;;;4.77;1.63;;;15.60;81.90;15.10;98665.00;;;;5136979;28;20685;-79
2022/05/05 10:00:53;;;;;;;1.73;1.63;;;15.60;81.70;15.30;98670.00;;;;5137088;28;20209;-79
2022/05/05 10:06:23;;;;;;;2.13;2.03;;;15.80;81.80;15.40;98661.00;;;;5136860;28;20221;-78
2022/05/05 10:08:53;;;;;;;2.13;1.97;;;15.80;80.80;15.70;98664.00;;;;5136918;28;20306;-78
2022/05/05 10:11:22;;;;;;;1.67;1.57;;;16.00;83.10;15.60;98675.00;;;;5137089;28;20244;-79
2022/05/05 10:13:50;;;;;;;2.60;2.20;;;16.00;81.80;15.60;98670.00;;;;5137213;28;20242;-78
2022/05/05 10:16:20;;;;;;;2.40;1.70;;;16.00;83.50;15.70;98673.00;;;;5136812;28;20303;-79
2022/05/05 10:18:50;;;;;;;1.53;1.47;;;16.20;82.80;15.90;98667.00;;;;5136737;28;20212;-79
2022/05/05 10:21:47;;;;;;;1.57;1.50;;;16.30;82.40;16.10;98669.00;;;;5136577;28;20289;-79
2022/05/05 10:24:20;;;;;;;2.13;2.03;;;16.40;80.40;16.10;98669.00;;;;5136055;27;20211;-78
2022/05/05 10:26:51;;;;;;;2.20;2.07;;;16.40;79.80;16.30;98669.00;;;;5136827;28;20252;-79
2022/05/05 10:29:37;;;;;;;2.57;2.37;;;16.80;77.90;16.40;98669.00;;;;5136581;28;20695;-78
2022/05/05 10:32:08;;;;;;;2.43;2.23;;;16.70;78.40;16.40;98656.00;;;;5118064;28;20286;-78
2022/05/05 10:34:34;;;;;;;2.23;2.13;;;16.80;77.20;16.50;98663.00;;;;5136541;28;20193;-78
2022/05/05 10:37:07;;;;;;;1.70;1.60;;;16.80;77.60;16.50;98665.00;;;;5136446;28;20308;-79
2022/05/05 10:40:06;;;;;;;1.77;1.67;;;16.90;77.50;16.60;98667.00;;;;5136488;28;20197;-79
2022/05/05 10:42:39;;;;;;;2.70;2.53;;;17.10;78.00;16.90;98673.00;;;;5136260;28;20228;-78
2022/05/05 10:45:12;;;;;;;2.33;2.13;;;17.20;76.90;16.70;98668.00;;;;5136704;28;20231;-79
2022/05/05 10:48:28;;;;;;;1.97;1.87;;;17.10;75.40;16.60;98668.00;;;;5136152;28;20217;-79
2022/05/05 10:51:07;;;;;;;3.53;3.07;;;17.10;75.90;16.50;98686.00;;;;5136328;28;20217;-79
2022/05/05 10:53:40;;;;;;;2.90;2.70;;;17.00;75.30;16.30;98673.00;;;;5136147;28;20242;-79
2022/05/05 10:56:27;;;;;;;3.23;2.70;;;16.90;74.80;16.10;98677.00;;;;5136068;28;20205;-79
2022/05/05 10:59:06;;;;;;;3.47;3.17;;;16.70;75.90;16.00;98677.00;;;;5136133;28;20225;-79
2022/05/05 11:01:58;;;;;;;3.47;3.00;;;16.60;78.70;16.30;98684.00;;;;5135925;28;20225;-79
2022/05/05 11:04:39;;;;;;;3.43;3.17;;;16.70;78.60;16.30;98680.00;;;;5107376;28;20224;-79
2022/05/05 11:07:30;;;;;;;2.53;2.33;;;16.70;79.80;16.50;98683.00;;;;5135881;28;20255;-79
2022/05/05 11:10:00;;;;;;;2.97;2.67;;;16.70;76.20;16.40;98673.00;;;;5135955;28;20193;-78
2022/05/05 11:12:36;;;;;;;2.23;1.90;;;;;16.30;98679.00;;;;5118150;28;20225;-78
2022/05/05 11:23:44;;;;;;;1.87;1.77;;;17.10;76.50;16.70;98681.00;;;;5135681;28;20239;-79
2022/05/05 11:26:16;;;;;;;2.53;2.33;;;17.10;75.50;16.80;98686.00;;;;5135578;28;20227;-79
2022/05/05 11:28:44;;;;;;;1.80;1.70;;;17.20;74.10;16.60;98682.00;;;;5135682;28;20221;-80
2022/05/05 11:31:19;;;;;;;2.87;2.67;;;17.10;74.20;16.70;98687.00;;;;5135517;28;20200;-79
2022/05/05 11:33:54;;;;;;;4.53;3.43;;;17.10;73.90;16.70;98684.00;;;;5135789;28;20278;-79
2022/05/05 11:36:21;;;;;;;3.80;2.37;;;17.10;73.20;16.60;98683.00;;;;5134500;27;20205;-79
2022/05/05 11:38:48;;;;;;;2.57;2.33;;;17.10;73.70;16.30;98677.00;;;;5135512;28;20225;-79
2022/05/05 11:41:19;;;;;;;3.37;3.17;;;16.80;74.90;16.50;98682.00;;;;5135476;28;20206;-79
2022/05/05 11:46:32;;;;;;;6.37;3.33;;;16.80;74.90;16.40;98669.00;;;;5135654;28;20288;-77
2022/05/05 11:49:01;;;;;;;2.73;2.53;;;16.80;74.80;16.40;98673.00;;;;5117891;28;20229;-79
2022/05/05 11:51:30;;;;;;;3.57;3.37;;;16.80;74.40;16.20;98681.00;;;;5135468;28;20191;-80